createdAt,value
2022-12-24T00:02:24.561Z,8.58
2022-12-24T00:05:06.246Z,8.58
2022-12-24T00:07:57.955Z,8.56
2022-12-24T00:10:37.000Z,8.53
2022-12-24T00:13:24.620Z,8.50
2022-12-24T00:16:06.165Z,8.50
2022-12-24T00:18:58.386Z,8.51
2022-12-24T00:21:37.033Z,8.53
2022-12-24T00:24:19.630Z,8.55
2022-12-24T00:26:59.764Z,8.58
2022-12-24T00:29:38.699Z,8.62
2022-12-24T00:32:19.911Z,8.66
2022-12-24T00:35:06.991Z,8.67
2022-12-24T00:37:45.932Z,8.69
2022-12-24T00:40:33.503Z,8.71
2022-12-24T00:43:13.720Z,8.72
2022-12-24T00:46:00.174Z,8.75
2022-12-24T00:48:38.453Z,8.75
2022-12-24T00:51:22.410Z,8.77
2022-12-24T00:54:07.282Z,8.80
2022-12-24T00:56:55.002Z,8.82
2022-12-24T00:59:32.848Z,8.79
2022-12-24T01:02:15.173Z,8.80
2022-12-24T01:05:26.848Z,8.80
2022-12-24T01:08:14.414Z,8.77
2022-12-24T01:10:53.056Z,8.75
2022-12-24T01:13:37.648Z,8.74
2022-12-24T01:16:24.321Z,8.74
2022-12-24T01:19:06.859Z,8.77
2022-12-24T01:21:46.374Z,8.79
2022-12-24T01:24:31.786Z,8.83
2022-12-24T01:27:11.994Z,8.88
2022-12-24T01:29:54.606Z,8.92
2022-12-24T01:32:32.885Z,8.95
2022-12-24T01:35:17.426Z,8.98
2022-12-24T01:37:55.324Z,9.00
2022-12-24T01:40:50.383Z,9.03
2022-12-24T01:43:32.151Z,9.05
2022-12-24T01:46:28.280Z,9.08
2022-12-24T01:49:10.414Z,9.10
2022-12-24T01:52:03.260Z,9.12
2022-12-24T01:54:59.118Z,9.16
2022-12-24T01:57:57.734Z,9.19
2022-12-24T02:00:39.203Z,9.22
2022-12-24T02:03:22.958Z,9.22
2022-12-24T02:06:04.127Z,9.19
2022-12-24T02:09:00.813Z,9.16
2022-12-24T02:11:42.039Z,9.15
2022-12-24T02:14:30.200Z,9.12
2022-12-24T02:17:15.006Z,9.10
2022-12-24T02:20:28.469Z,9.11
2022-12-24T02:23:39.448Z,9.11
2022-12-24T02:26:58.478Z,9.09
2022-12-24T02:30:00.692Z,9.05
2022-12-24T02:33:07.800Z,9.01
2022-12-24T02:36:11.627Z,8.99
2022-12-24T02:39:02.567Z,9.00
2022-12-24T02:42:06.248Z,9.03
2022-12-24T02:44:57.939Z,9.11
2022-12-24T02:47:40.277Z,9.14
2022-12-24T02:50:30.401Z,9.20
2022-12-24T02:53:09.918Z,9.26
2022-12-24T02:56:26.270Z,9.29
2022-12-24T02:59:17.538Z,9.32
2022-12-24T03:02:14.480Z,9.37
2022-12-24T03:05:20.676Z,9.41
2022-12-24T03:08:01.837Z,9.47
2022-12-24T03:10:56.924Z,9.53
2022-12-24T03:13:48.900Z,9.61
2022-12-24T03:16:31.082Z,9.67
2022-12-24T03:19:15.929Z,9.69
2022-12-24T03:21:54.185Z,9.70
2022-12-24T03:24:36.884Z,9.72
2022-12-24T03:27:15.906Z,9.74
2022-12-24T03:30:04.612Z,9.76
2022-12-24T03:32:46.290Z,9.80
2022-12-24T03:35:28.432Z,9.85
2022-12-24T03:38:13.453Z,9.87
2022-12-24T03:40:58.130Z,9.88
2022-12-24T03:43:32.888Z,9.89
2022-12-24T03:46:20.417Z,9.91
2022-12-24T03:49:00.540Z,9.94
2022-12-24T03:51:43.249Z,9.98
2022-12-24T03:54:25.843Z,10.05
2022-12-24T03:57:11.084Z,10.09
2022-12-24T03:59:49.863Z,10.11
2022-12-24T04:02:42.908Z,10.12
2022-12-24T04:05:29.720Z,10.14
2022-12-24T04:08:13.389Z,10.16
2022-12-24T04:10:52.220Z,10.20
2022-12-24T04:13:31.920Z,10.22
2022-12-24T04:16:17.434Z,10.23
2022-12-24T04:19:01.575Z,10.23
2022-12-24T04:21:40.592Z,10.22
2022-12-24T04:24:27.825Z,10.21
2022-12-24T04:27:08.921Z,10.22
2022-12-24T04:29:55.680Z,10.25
2022-12-24T04:32:36.934Z,10.29
2022-12-24T04:35:19.457Z,10.32
2022-12-24T04:38:01.764Z,10.32
2022-12-24T04:40:49.548Z,10.32
2022-12-24T04:43:27.964Z,10.30
2022-12-24T04:46:25.449Z,10.29
2022-12-24T04:49:04.808Z,10.28
2022-12-24T04:51:52.222Z,10.28
2022-12-24T04:54:33.439Z,10.28
2022-12-24T04:57:15.210Z,10.26
2022-12-24T04:59:56.351Z,10.25
2022-12-24T05:02:46.210Z,10.22
2022-12-24T05:05:24.687Z,10.18
2022-12-24T05:08:08.940Z,10.15
2022-12-24T05:10:47.641Z,10.15
2022-12-24T05:13:40.761Z,10.13
2022-12-24T05:16:29.395Z,10.11
2022-12-24T05:19:16.629Z,10.10
2022-12-24T05:22:14.422Z,10.12
2022-12-24T05:25:15.946Z,10.12
2022-12-24T05:27:51.698Z,10.12
2022-12-24T05:30:28.656Z,10.10
2022-12-24T05:33:07.224Z,10.07
2022-12-24T05:35:53.691Z,10.04
2022-12-24T05:38:32.762Z,10.02
2022-12-24T05:41:21.856Z,10.02
2022-12-24T05:44:00.825Z,10.04
2022-12-24T05:46:43.416Z,10.07
2022-12-24T05:49:22.655Z,10.09
2022-12-24T05:52:05.586Z,10.11
2022-12-24T05:54:42.043Z,10.12
2022-12-24T05:57:27.754Z,10.12
2022-12-24T06:00:07.228Z,10.10
2022-12-24T06:02:58.168Z,10.08
2022-12-24T06:05:37.018Z,10.05
2022-12-24T06:08:22.126Z,10.04
2022-12-24T06:11:11.601Z,10.05
2022-12-24T06:13:50.076Z,10.08
2022-12-24T06:16:35.076Z,10.09
2022-12-24T06:19:18.583Z,10.09
2022-12-24T06:22:11.146Z,10.08
2022-12-24T06:25:02.553Z,10.09
2022-12-24T06:27:41.851Z,10.09
2022-12-24T06:30:25.338Z,10.08
2022-12-24T06:33:03.205Z,10.08
2022-12-24T06:35:50.831Z,10.08
2022-12-24T06:38:33.669Z,10.08
2022-12-24T06:41:15.835Z,10.08
2022-12-24T06:43:59.120Z,10.07
2022-12-24T06:46:42.734Z,10.04
2022-12-24T06:49:20.241Z,10.01
2022-12-24T06:52:02.826Z,9.97
2022-12-24T06:54:43.155Z,9.95
2022-12-24T06:57:32.391Z,9.94
2022-12-24T07:00:14.891Z,9.94
2022-12-24T07:02:58.527Z,9.93
2022-12-24T07:05:38.077Z,9.92
2022-12-24T07:08:23.950Z,9.92
2022-12-24T07:11:06.404Z,9.87
2022-12-24T07:13:55.995Z,9.82
2022-12-24T07:16:35.259Z,9.77
2022-12-24T07:19:18.155Z,9.72
2022-12-24T07:21:58.673Z,9.69
2022-12-24T07:24:41.386Z,9.66
2022-12-24T07:27:19.660Z,9.65
2022-12-24T07:30:00.862Z,9.65
2022-12-24T07:32:40.225Z,9.66
2022-12-24T07:35:29.697Z,9.68
2022-12-24T07:38:06.997Z,9.69
2022-12-24T07:40:46.990Z,9.67
2022-12-24T07:43:30.142Z,9.68
2022-12-24T07:46:15.169Z,9.70
2022-12-24T07:48:57.178Z,9.72
2022-12-24T07:51:35.824Z,9.72
2022-12-24T07:54:18.375Z,9.70
2022-12-24T07:57:05.078Z,9.69
2022-12-24T07:59:46.728Z,9.69
2022-12-24T08:02:32.105Z,9.70
2022-12-24T08:05:11.991Z,9.76
2022-12-24T08:07:54.215Z,9.80
2022-12-24T08:10:35.248Z,9.83
2022-12-24T08:13:14.462Z,9.86
2022-12-24T08:16:00.025Z,9.91
2022-12-24T08:18:42.299Z,9.95
2022-12-24T08:21:19.748Z,9.95
2022-12-24T08:24:06.001Z,9.95
2022-12-24T08:26:44.489Z,9.95
2022-12-24T08:29:28.571Z,9.95
2022-12-24T08:32:15.009Z,9.95
2022-12-24T08:34:56.771Z,9.98
2022-12-24T08:37:37.248Z,10.01
2022-12-24T08:40:20.503Z,10.02
2022-12-24T08:42:58.621Z,10.06
2022-12-24T08:45:40.971Z,10.09
2022-12-24T08:48:14.890Z,10.13
2022-12-24T08:50:53.432Z,10.17
2022-12-24T08:53:32.901Z,10.21
2022-12-24T08:56:16.895Z,10.24
2022-12-24T08:58:56.042Z,10.25
2022-12-24T09:01:34.866Z,10.23
2022-12-24T09:04:16.737Z,10.26
2022-12-24T09:06:58.142Z,10.30
2022-12-24T09:09:41.762Z,10.36
2022-12-24T09:12:18.827Z,10.40
2022-12-24T09:15:03.147Z,10.42
2022-12-24T09:20:40.395Z,10.43
2022-12-24T09:23:24.267Z,10.46
2022-12-24T09:26:13.824Z,10.53
2022-12-24T09:29:00.863Z,10.62
2022-12-24T09:31:42.427Z,10.65
2022-12-24T09:34:30.656Z,10.65
2022-12-24T09:37:15.455Z,10.61
2022-12-24T09:39:54.930Z,10.57
2022-12-24T09:43:08.384Z,10.56
2022-12-24T09:46:00.082Z,10.57
2022-12-24T09:48:37.197Z,10.62
2022-12-24T09:51:27.218Z,10.71
2022-12-24T09:54:11.832Z,10.79
2022-12-24T09:56:55.055Z,10.83
2022-12-24T09:59:45.159Z,10.86
2022-12-24T10:02:24.013Z,10.85
2022-12-24T10:05:04.536Z,10.79
2022-12-24T10:07:52.492Z,10.73
2022-12-24T10:10:39.910Z,10.66
2022-12-24T10:13:39.447Z,10.56
2022-12-24T10:16:36.356Z,10.49
2022-12-24T10:19:35.941Z,10.45
2022-12-24T10:22:26.016Z,10.46
2022-12-24T10:25:23.173Z,10.48
2022-12-24T10:28:06.947Z,10.48
2022-12-24T10:30:47.568Z,10.46
2022-12-24T10:33:46.278Z,10.45
2022-12-24T10:36:33.967Z,10.47
2022-12-24T10:39:30.657Z,10.49
2022-12-24T10:42:20.506Z,10.52
2022-12-24T10:45:06.631Z,10.53
2022-12-24T10:47:57.721Z,10.51
2022-12-24T10:50:52.241Z,10.49
2022-12-24T10:53:40.000Z,10.46
2022-12-24T10:56:29.091Z,10.44
2022-12-24T10:59:09.193Z,10.43
2022-12-24T11:01:54.621Z,10.45
2022-12-24T11:04:38.600Z,10.47
2022-12-24T11:07:26.037Z,10.48
2022-12-24T11:10:13.254Z,10.47
2022-12-24T11:13:20.340Z,10.47
2022-12-24T11:16:09.435Z,10.43
2022-12-24T11:19:03.509Z,10.39
2022-12-24T11:21:53.063Z,10.38
2022-12-24T11:24:37.743Z,10.39
2022-12-24T11:27:34.776Z,10.42
2022-12-24T11:30:21.601Z,10.43
2022-12-24T11:33:08.262Z,10.43
2022-12-24T11:35:57.870Z,10.42
2022-12-24T11:38:48.365Z,10.40
2022-12-24T11:41:41.780Z,10.37
2022-12-24T11:44:38.468Z,10.36
2022-12-24T11:47:34.982Z,10.38
2022-12-24T11:50:32.651Z,10.39
2022-12-24T11:56:42.939Z,10.51
2022-12-24T11:59:16.400Z,10.54
2022-12-24T12:02:02.583Z,10.53
2022-12-24T12:04:52.587Z,10.53
2022-12-24T12:07:35.018Z,10.52
2022-12-24T12:10:28.963Z,10.53
2022-12-24T12:13:36.782Z,10.54
2022-12-24T12:16:33.700Z,10.52
2022-12-24T12:19:29.028Z,10.51
2022-12-24T12:22:57.431Z,10.50
2022-12-24T12:25:43.480Z,10.54
2022-12-24T12:28:54.044Z,10.60
2022-12-24T12:31:56.217Z,10.67
2022-12-24T12:34:34.863Z,10.70
2022-12-24T12:37:28.091Z,10.74
2022-12-24T12:40:18.681Z,10.78
2022-12-24T12:43:23.029Z,10.80
2022-12-24T12:46:18.241Z,10.81
2022-12-24T12:49:13.199Z,10.81
2022-12-24T12:52:10.415Z,10.80
2022-12-24T12:55:08.656Z,10.77
2022-12-24T12:57:52.148Z,10.77
2022-12-24T13:00:34.461Z,10.80
2022-12-24T13:03:40.979Z,10.86
2022-12-24T13:06:47.619Z,10.91
2022-12-24T13:10:08.956Z,10.94
2022-12-24T13:13:12.991Z,10.90
2022-12-24T13:16:07.254Z,10.90
2022-12-24T13:19:03.698Z,10.91
2022-12-24T13:21:52.411Z,10.87
2022-12-24T13:24:46.436Z,10.82
2022-12-24T13:27:38.909Z,10.79
2022-12-24T13:30:40.362Z,10.80
2022-12-24T13:33:38.638Z,10.82
2022-12-24T13:36:20.832Z,10.84
2022-12-24T13:39:02.585Z,10.82
2022-12-24T13:41:45.040Z,10.81
2022-12-24T13:44:25.975Z,10.77
2022-12-24T13:47:32.412Z,10.72
2022-12-24T13:50:44.361Z,10.65
2022-12-24T13:53:45.094Z,10.57
2022-12-24T13:56:34.106Z,10.49
2022-12-24T13:59:38.116Z,10.43
2022-12-24T14:02:25.452Z,10.38
2022-12-24T14:05:07.145Z,10.35
2022-12-24T14:07:53.555Z,10.34
2022-12-24T14:10:43.289Z,10.34
2022-12-24T14:14:01.758Z,10.36
2022-12-24T14:16:53.333Z,10.37
2022-12-24T14:19:49.125Z,10.38
2022-12-24T14:22:45.864Z,10.33
2022-12-24T14:25:27.014Z,10.28
2022-12-24T14:28:22.754Z,10.21
2022-12-24T14:31:08.101Z,10.10
2022-12-24T14:33:49.467Z,10.00
2022-12-24T14:36:32.104Z,9.93
2022-12-24T14:39:16.000Z,9.86
2022-12-24T14:42:19.443Z,9.80
2022-12-24T14:45:31.923Z,9.74
2022-12-24T14:48:44.658Z,9.66
2022-12-24T14:51:52.118Z,9.58
2022-12-24T14:54:41.946Z,9.50
2022-12-24T14:57:29.919Z,9.44
2022-12-24T15:00:24.816Z,9.41
2022-12-24T15:03:03.666Z,9.38
2022-12-24T15:05:42.927Z,9.39
2022-12-24T15:08:33.262Z,9.39
2022-12-24T15:11:13.861Z,9.37
2022-12-24T15:13:59.838Z,9.32
2022-12-24T15:16:43.055Z,9.26
2022-12-24T15:19:36.819Z,9.19
2022-12-24T15:22:29.636Z,9.08
2022-12-24T15:25:21.460Z,9.00
2022-12-24T15:28:02.206Z,8.90
2022-12-24T15:30:41.127Z,8.80
2022-12-24T15:33:25.183Z,8.70
2022-12-24T15:36:07.182Z,8.63
2022-12-24T15:38:55.229Z,8.62
2022-12-24T15:42:05.453Z,8.60
2022-12-24T15:44:53.080Z,8.61
2022-12-24T15:47:37.983Z,8.56
2022-12-24T15:50:24.862Z,8.47
2022-12-24T15:53:22.096Z,8.42
2022-12-24T15:56:13.686Z,8.41
2022-12-24T15:58:52.054Z,8.42
2022-12-24T16:01:36.450Z,8.44
2022-12-24T16:04:30.788Z,8.45
2022-12-24T16:07:16.354Z,8.42
2022-12-24T16:10:16.559Z,8.43
2022-12-24T16:12:54.683Z,8.45
2022-12-24T16:15:52.494Z,8.47
2022-12-24T16:18:43.977Z,8.53
2022-12-24T16:21:42.722Z,8.59
2022-12-24T16:24:30.780Z,8.62
2022-12-24T16:27:17.757Z,8.66
2022-12-24T16:29:57.586Z,8.71
2022-12-24T16:32:43.649Z,8.76
2022-12-24T16:35:40.439Z,8.79
2022-12-24T16:38:24.481Z,8.79
2022-12-24T16:41:05.135Z,8.79
2022-12-24T16:43:59.693Z,8.80
2022-12-24T16:46:44.228Z,8.82
2022-12-24T16:49:28.686Z,8.86
2022-12-24T16:52:24.982Z,8.93
2022-12-24T16:55:13.073Z,9.00
2022-12-24T16:57:57.059Z,9.06
2022-12-24T17:00:34.063Z,9.09
2022-12-24T17:03:14.474Z,9.09
2022-12-24T17:05:56.029Z,9.06
2022-12-24T17:08:37.837Z,9.05
2022-12-24T17:11:26.355Z,9.03
2022-12-24T17:14:08.540Z,9.04
2022-12-24T17:16:48.851Z,9.07
2022-12-24T17:19:27.957Z,9.10
2022-12-24T17:22:10.363Z,9.09
2022-12-24T17:24:52.606Z,9.06
2022-12-24T17:27:31.530Z,9.01
2022-12-24T17:30:15.122Z,8.95
2022-12-24T17:32:56.122Z,8.86
2022-12-24T17:35:38.790Z,8.79
2022-12-24T17:38:23.135Z,8.77
2022-12-24T17:41:09.379Z,8.77
2022-12-24T17:43:51.199Z,8.80
2022-12-24T17:46:32.870Z,8.83
2022-12-24T17:49:14.341Z,8.83
2022-12-24T17:51:53.629Z,8.82
2022-12-24T17:54:33.263Z,8.80
2022-12-24T17:57:15.330Z,8.83
2022-12-24T17:59:57.136Z,8.86
2022-12-24T18:02:35.847Z,8.90
2022-12-24T18:05:16.587Z,8.93
2022-12-24T18:07:56.046Z,8.96
2022-12-24T18:10:36.470Z,8.96
2022-12-24T18:13:19.501Z,8.96
2022-12-24T18:15:58.602Z,8.98
2022-12-24T18:18:40.490Z,9.00
2022-12-24T18:21:20.893Z,9.00
2022-12-24T18:24:04.286Z,9.01
2022-12-24T18:26:43.472Z,9.01
2022-12-24T18:29:26.557Z,9.02
2022-12-24T18:32:07.847Z,9.02
2022-12-24T18:34:49.274Z,9.03
2022-12-24T18:37:27.798Z,9.01
2022-12-24T18:40:09.413Z,8.99
2022-12-24T18:42:51.426Z,8.98
2022-12-24T18:45:33.489Z,8.96
2022-12-24T18:48:19.079Z,8.93
2022-12-24T18:51:04.713Z,8.91
2022-12-24T18:53:44.406Z,8.88
2022-12-24T18:56:29.808Z,8.89
2022-12-24T18:59:08.679Z,8.93
2022-12-24T19:01:51.926Z,8.95
2022-12-24T19:04:30.406Z,8.97
2022-12-24T19:07:14.969Z,8.97
2022-12-24T19:09:53.368Z,8.96
2022-12-24T19:12:32.847Z,8.96
2022-12-24T19:15:13.712Z,8.97
2022-12-24T19:18:00.510Z,8.96
2022-12-24T19:20:43.312Z,8.96
2022-12-24T19:23:26.654Z,9.00
2022-12-24T19:26:08.026Z,9.00
2022-12-24T19:28:52.452Z,8.97
2022-12-24T19:31:31.884Z,8.94
2022-12-24T19:34:11.386Z,8.93
2022-12-24T19:36:54.241Z,8.90
2022-12-24T19:39:41.061Z,8.87
2022-12-24T19:42:28.529Z,8.87
2022-12-24T19:45:12.098Z,8.88
2022-12-24T19:47:56.555Z,8.89
2022-12-24T19:50:38.503Z,8.92
2022-12-24T19:53:23.016Z,8.92
2022-12-24T19:56:07.283Z,8.92
2022-12-24T19:58:50.713Z,8.89
2022-12-24T20:01:40.302Z,8.86
2022-12-24T20:04:24.715Z,8.83
2022-12-24T20:07:08.207Z,8.82
2022-12-24T20:09:56.218Z,8.82
2022-12-24T20:12:37.194Z,8.83
2022-12-24T20:15:09.331Z,8.83
2022-12-24T20:17:36.665Z,8.85
2022-12-24T20:20:11.466Z,8.82
2022-12-24T20:22:55.932Z,8.80
2022-12-24T20:25:29.198Z,8.78
2022-12-24T20:28:14.644Z,8.78
2022-12-24T20:30:56.480Z,8.78
2022-12-24T20:33:42.960Z,8.79
2022-12-24T20:36:25.816Z,8.83
2022-12-24T20:39:08.722Z,8.84
2022-12-24T20:41:58.465Z,8.83
2022-12-24T20:44:38.650Z,8.82
2022-12-24T20:47:20.708Z,8.80
2022-12-24T20:50:07.800Z,8.77
2022-12-24T20:52:46.929Z,8.75
2022-12-24T20:55:30.624Z,8.75
2022-12-24T20:58:14.447Z,8.76
2022-12-24T21:00:59.459Z,8.75
2022-12-24T21:03:39.304Z,8.76
2022-12-24T21:06:23.161Z,8.77
2022-12-24T21:09:03.370Z,8.77
2022-12-24T21:11:58.596Z,8.74
2022-12-24T21:14:40.343Z,8.72
2022-12-24T21:17:21.959Z,8.71
2022-12-24T21:20:04.490Z,8.70
2022-12-24T21:22:39.345Z,8.72
2022-12-24T21:25:19.558Z,8.77
2022-12-24T21:28:05.584Z,8.82
2022-12-24T21:30:46.261Z,8.82
2022-12-24T21:33:30.950Z,8.80
2022-12-24T21:36:30.519Z,8.75
2022-12-24T21:39:16.220Z,8.69
2022-12-24T21:41:59.496Z,8.66
2022-12-24T21:44:44.494Z,8.63
2022-12-24T21:47:32.716Z,8.59
2022-12-24T21:50:38.752Z,8.59
2022-12-24T21:53:45.924Z,8.62
2022-12-24T21:56:31.290Z,8.62
2022-12-24T21:59:11.136Z,8.62
2022-12-24T22:01:50.920Z,8.62
2022-12-24T22:04:34.809Z,8.64
2022-12-24T22:07:53.891Z,8.66
2022-12-24T22:10:50.613Z,8.66
2022-12-24T22:13:38.937Z,8.65
2022-12-24T22:16:18.250Z,8.59
2022-12-24T22:19:04.470Z,8.50
2022-12-24T22:21:43.379Z,8.41
2022-12-24T22:24:23.417Z,8.33
2022-12-24T22:27:04.568Z,8.29
2022-12-24T22:29:46.637Z,8.31
2022-12-24T22:32:25.748Z,8.36
2022-12-24T22:35:02.865Z,8.44
2022-12-24T22:37:44.537Z,8.54
2022-12-24T22:40:20.165Z,8.62
2022-12-24T22:42:56.445Z,8.67
2022-12-24T22:45:43.495Z,8.65
2022-12-24T22:48:20.858Z,8.58
2022-12-24T22:51:03.168Z,8.52
2022-12-24T22:53:42.857Z,8.45
2022-12-24T22:56:26.630Z,8.37
2022-12-24T22:59:06.914Z,8.18
2022-12-24T23:01:51.713Z,8.07
2022-12-24T23:04:27.619Z,8.01
2022-12-24T23:07:10.021Z,7.87
2022-12-24T23:09:45.145Z,7.69
2022-12-24T23:12:47.381Z,7.60
2022-12-24T23:15:26.210Z,7.54
2022-12-24T23:18:14.212Z,7.55
2022-12-24T23:20:57.468Z,7.57
2022-12-24T23:23:40.958Z,7.62
2022-12-24T23:26:19.207Z,7.69
2022-12-24T23:28:58.319Z,7.76
2022-12-24T23:31:37.851Z,7.80
2022-12-24T23:34:23.832Z,7.81
2022-12-24T23:37:02.513Z,7.83
2022-12-24T23:39:46.239Z,7.84
2022-12-24T23:42:27.975Z,7.83
2022-12-24T23:45:18.704Z,7.81
2022-12-24T23:47:50.975Z,7.78
2022-12-24T23:50:24.939Z,7.78
2022-12-24T23:53:04.765Z,7.77
2022-12-24T23:55:50.843Z,7.77
2022-12-24T23:58:32.446Z,7.80
